createdAt,value
2022-10-26T00:00:24.670Z,20.90
2022-10-26T00:03:11.787Z,20.80
2022-10-26T00:06:09.157Z,20.90
2022-10-26T00:08:59.138Z,20.90
2022-10-26T00:11:46.170Z,20.90
2022-10-26T00:14:33.596Z,20.80
2022-10-26T00:17:20.813Z,20.80
2022-10-26T00:20:09.703Z,20.80
2022-10-26T00:22:57.032Z,20.80
2022-10-26T00:25:45.633Z,20.80
2022-10-26T00:28:33.526Z,20.80
2022-10-26T00:31:20.500Z,20.80
2022-10-26T00:34:08.457Z,20.80
2022-10-26T00:36:55.859Z,20.80
2022-10-26T00:39:43.114Z,20.80
2022-10-26T00:42:31.598Z,20.80
2022-10-26T00:45:23.015Z,20.80
2022-10-26T00:48:20.714Z,20.80
2022-10-26T00:51:12.278Z,20.80
2022-10-26T00:54:00.873Z,20.80
2022-10-26T00:56:51.336Z,20.90
2022-10-26T00:59:41.051Z,20.90
2022-10-26T01:02:28.750Z,20.90
2022-10-26T01:05:16.932Z,20.90
2022-10-26T01:08:04.931Z,20.90
2022-10-26T01:10:53.018Z,20.90
2022-10-26T01:13:40.892Z,20.90
2022-10-26T01:16:50.993Z,20.90
2022-10-26T01:20:20.649Z,20.90
2022-10-26T01:23:12.553Z,20.90
2022-10-26T01:30:26.328Z,20.90
2022-10-26T01:33:33.960Z,20.90
2022-10-26T01:39:30.970Z,20.90
2022-10-26T01:42:22.668Z,20.90
2022-10-26T01:45:13.856Z,20.90
2022-10-26T01:48:03.508Z,20.90
2022-10-26T01:50:55.990Z,20.90
2022-10-26T01:53:47.683Z,20.90
2022-10-26T01:56:40.188Z,20.90
2022-10-26T01:59:49.454Z,20.80
2022-10-26T02:03:08.431Z,20.90
2022-10-26T02:06:08.458Z,20.90
2022-10-26T02:09:03.350Z,20.90
2022-10-26T02:11:53.929Z,20.90
2022-10-26T02:14:49.026Z,20.90
2022-10-26T02:17:47.781Z,20.90
2022-10-26T02:20:41.384Z,20.90
2022-10-26T02:23:33.252Z,20.90
2022-10-26T02:26:26.074Z,20.90
2022-10-26T02:29:18.922Z,20.90
2022-10-26T02:32:08.257Z,20.90
2022-10-26T02:34:59.077Z,21.00
2022-10-26T02:37:48.221Z,20.90
2022-10-26T02:40:38.369Z,20.90
2022-10-26T02:43:27.925Z,20.90
2022-10-26T02:46:18.445Z,20.90
2022-10-26T02:49:05.801Z,20.90
2022-10-26T02:52:02.644Z,20.90
2022-10-26T02:54:55.834Z,20.90
2022-10-26T02:57:49.072Z,20.90
2022-10-26T03:00:36.414Z,20.90
2022-10-26T03:03:24.355Z,20.90
2022-10-26T03:06:11.398Z,20.90
2022-10-26T03:08:58.550Z,20.90
2022-10-26T03:11:45.589Z,20.90
2022-10-26T03:14:34.073Z,20.90
2022-10-26T03:17:21.423Z,20.90
2022-10-26T03:20:10.246Z,20.90
2022-10-26T03:22:57.983Z,20.90
2022-10-26T03:25:44.969Z,20.90
2022-10-26T03:28:32.018Z,20.90
2022-10-26T03:31:20.456Z,20.90
2022-10-26T03:34:07.778Z,20.90
2022-10-26T03:36:55.159Z,20.90
2022-10-26T03:39:42.139Z,20.90
2022-10-26T03:42:29.152Z,20.90
2022-10-26T03:45:16.458Z,21.00
2022-10-26T03:48:05.798Z,21.00
2022-10-26T03:50:52.685Z,20.90
2022-10-26T03:53:39.698Z,20.90
2022-10-26T03:56:27.144Z,20.90
2022-10-26T03:59:14.162Z,20.90
2022-10-26T04:02:01.665Z,20.90
2022-10-26T04:04:50.199Z,21.00
2022-10-26T04:07:37.714Z,21.00
2022-10-26T04:10:26.260Z,20.90
2022-10-26T04:13:13.700Z,21.00
2022-10-26T04:16:01.004Z,21.00
2022-10-26T04:18:48.154Z,20.90
2022-10-26T04:21:36.937Z,21.00
2022-10-26T04:24:24.064Z,21.00
2022-10-26T04:27:11.118Z,20.90
2022-10-26T04:29:58.306Z,20.90
2022-10-26T04:32:45.380Z,21.00
2022-10-26T04:35:32.824Z,20.90
2022-10-26T04:38:21.350Z,20.90
2022-10-26T04:41:08.463Z,21.00
2022-10-26T04:43:55.893Z,20.90
2022-10-26T04:46:43.154Z,21.00
2022-10-26T04:49:30.088Z,20.90
2022-10-26T04:52:17.182Z,20.90
2022-10-26T04:55:07.212Z,20.90
2022-10-26T04:57:57.298Z,20.90
2022-10-26T05:00:47.780Z,21.00
2022-10-26T05:03:35.951Z,21.00
2022-10-26T05:06:23.735Z,20.90
2022-10-26T05:09:11.183Z,21.00
2022-10-26T05:11:59.768Z,21.00
2022-10-26T05:14:47.266Z,21.00
2022-10-26T05:17:34.189Z,20.90
2022-10-26T05:20:21.435Z,20.90
2022-10-26T05:23:13.890Z,21.00
2022-10-26T05:26:01.316Z,20.90
2022-10-26T05:28:49.898Z,21.00
2022-10-26T05:31:36.803Z,21.00
2022-10-26T05:34:23.856Z,21.00
2022-10-26T05:37:10.979Z,21.00
2022-10-26T05:39:57.990Z,20.90
2022-10-26T05:42:45.363Z,20.90
2022-10-26T05:45:34.274Z,21.00
2022-10-26T05:48:22.058Z,21.00
2022-10-26T05:51:09.300Z,20.90
2022-10-26T05:53:56.733Z,20.90
2022-10-26T05:56:44.657Z,20.90
2022-10-26T05:59:32.499Z,20.90
2022-10-26T06:02:33.790Z,20.90
2022-10-26T06:05:07.202Z,20.90
2022-10-26T06:07:36.554Z,20.90
2022-10-26T06:10:06.366Z,20.90
2022-10-26T06:12:36.088Z,20.90
2022-10-26T06:15:06.014Z,20.90
2022-10-26T06:17:53.975Z,20.90
2022-10-26T06:20:41.296Z,20.90
2022-10-26T06:23:34.471Z,20.90
2022-10-26T06:26:12.050Z,20.90
2022-10-26T06:28:53.404Z,20.90
2022-10-26T06:31:22.094Z,21.00
2022-10-26T06:34:01.459Z,21.00
2022-10-26T06:36:30.862Z,21.00
2022-10-26T06:39:04.460Z,21.00
2022-10-26T06:41:35.649Z,20.90
2022-10-26T06:44:06.252Z,21.00
2022-10-26T06:46:43.194Z,20.90
2022-10-26T06:49:23.117Z,21.00
2022-10-26T06:52:00.341Z,21.00
2022-10-26T06:54:44.709Z,20.90
2022-10-26T06:57:16.381Z,20.90
2022-10-26T06:59:50.481Z,21.00
2022-10-26T07:02:19.515Z,21.00
2022-10-26T07:04:49.883Z,21.00
2022-10-26T07:07:21.919Z,20.90
2022-10-26T07:09:51.329Z,20.90
2022-10-26T07:12:20.078Z,20.90
2022-10-26T07:14:48.675Z,20.90
2022-10-26T07:17:17.731Z,21.00
2022-10-26T07:19:46.321Z,21.00
2022-10-26T07:22:16.541Z,21.00
2022-10-26T07:24:45.120Z,21.00
2022-10-26T07:27:13.712Z,21.00
2022-10-26T07:29:42.326Z,21.00
2022-10-26T07:32:10.887Z,21.00
2022-10-26T07:34:39.508Z,21.00
2022-10-26T07:37:08.254Z,21.00
2022-10-26T07:39:38.287Z,21.00
2022-10-26T07:42:07.044Z,21.00
2022-10-26T07:44:35.646Z,21.00
2022-10-26T07:47:04.204Z,21.10
2022-10-26T07:49:32.869Z,21.10
2022-10-26T07:52:01.563Z,21.10
2022-10-26T07:54:30.240Z,21.10
2022-10-26T07:57:01.126Z,21.10
2022-10-26T07:59:29.788Z,21.10
2022-10-26T08:01:58.438Z,21.10
2022-10-26T08:04:27.307Z,21.10
2022-10-26T08:06:55.979Z,21.10
2022-10-26T08:09:24.561Z,21.20
2022-10-26T08:11:53.194Z,21.20
2022-10-26T08:14:23.154Z,21.20
2022-10-26T08:16:52.725Z,21.20
2022-10-26T08:19:21.672Z,21.20
2022-10-26T08:21:50.237Z,21.20
2022-10-26T08:24:18.885Z,21.30
2022-10-26T08:26:47.457Z,21.30
2022-10-26T08:29:16.047Z,21.30
2022-10-26T08:31:46.161Z,21.30
2022-10-26T08:34:14.728Z,21.30
2022-10-26T08:36:43.430Z,21.30
2022-10-26T08:39:12.056Z,21.30
2022-10-26T08:41:45.513Z,21.30
2022-10-26T08:44:26.597Z,21.40
2022-10-26T08:47:00.878Z,21.40
2022-10-26T08:49:37.994Z,21.40
2022-10-26T08:52:07.848Z,21.50
2022-10-26T08:54:41.403Z,21.50
2022-10-26T08:57:20.039Z,21.50
2022-10-26T08:59:56.518Z,21.50
2022-10-26T09:02:26.828Z,21.50
2022-10-26T09:04:56.437Z,21.50
2022-10-26T09:07:42.696Z,21.50
2022-10-26T09:10:35.250Z,21.60
2022-10-26T09:13:13.566Z,21.60
2022-10-26T09:15:57.756Z,21.60
2022-10-26T09:21:32.754Z,21.70
2022-10-26T09:24:08.830Z,21.80
2022-10-26T09:26:54.134Z,21.80
2022-10-26T09:29:28.293Z,21.80
2022-10-26T09:31:58.764Z,21.80
2022-10-26T09:34:37.754Z,21.90
2022-10-26T09:37:18.262Z,21.90
2022-10-26T09:39:58.181Z,21.90
2022-10-26T09:42:34.625Z,22.00
2022-10-26T09:45:11.824Z,22.00
2022-10-26T09:47:45.285Z,22.10
2022-10-26T09:50:26.628Z,22.10
2022-10-26T09:52:55.215Z,22.10
2022-10-26T09:55:24.031Z,22.20
2022-10-26T09:57:55.854Z,22.20
2022-10-26T10:00:26.788Z,22.20
2022-10-26T10:02:57.613Z,22.30
2022-10-26T10:05:51.403Z,22.30
2022-10-26T10:08:22.958Z,22.30
2022-10-26T10:11:01.663Z,22.40
2022-10-26T10:13:33.303Z,22.40
2022-10-26T10:16:09.599Z,22.50
2022-10-26T10:18:39.472Z,22.50
2022-10-26T10:21:11.098Z,22.50
2022-10-26T10:23:52.029Z,22.50
2022-10-26T10:26:20.814Z,22.60
2022-10-26T10:29:00.172Z,22.60
2022-10-26T10:31:31.136Z,22.60
2022-10-26T10:34:00.376Z,22.70
2022-10-26T10:36:32.374Z,22.70
2022-10-26T10:39:02.092Z,22.70
2022-10-26T10:41:36.520Z,22.70
2022-10-26T10:44:16.831Z,22.70
2022-10-26T10:46:49.100Z,22.70
2022-10-26T10:49:22.762Z,22.70
2022-10-26T10:51:53.009Z,22.80
2022-10-26T10:54:30.670Z,22.80
2022-10-26T10:57:14.921Z,22.80
2022-10-26T11:00:03.157Z,22.70
2022-10-26T11:03:16.876Z,22.80
2022-10-26T11:06:01.676Z,22.80
2022-10-26T11:08:39.295Z,22.80
2022-10-26T11:11:13.892Z,22.80
2022-10-26T11:13:51.937Z,22.80
2022-10-26T11:16:24.990Z,22.70
2022-10-26T11:18:59.822Z,22.70
2022-10-26T11:21:31.146Z,22.70
2022-10-26T11:24:13.829Z,22.70
2022-10-26T11:26:48.252Z,22.70
2022-10-26T11:29:35.055Z,22.70
2022-10-26T11:32:16.699Z,22.70
2022-10-26T11:34:54.864Z,22.80
2022-10-26T11:37:30.147Z,22.80
2022-10-26T11:40:26.946Z,22.80
2022-10-26T11:43:08.086Z,22.80
2022-10-26T11:45:42.496Z,22.90
2022-10-26T11:48:18.286Z,22.90
2022-10-26T11:50:52.449Z,22.90
2022-10-26T11:53:26.668Z,22.90
2022-10-26T11:55:57.798Z,22.90
2022-10-26T11:58:28.685Z,22.90
2022-10-26T12:01:02.092Z,22.90
2022-10-26T12:03:35.427Z,22.90
2022-10-26T12:06:04.079Z,22.90
2022-10-26T12:08:37.616Z,22.90
2022-10-26T12:11:14.925Z,22.90
2022-10-26T12:13:50.012Z,23.00
2022-10-26T12:16:36.961Z,23.00
2022-10-26T12:19:14.543Z,22.90
2022-10-26T12:21:43.984Z,23.00
2022-10-26T12:24:33.634Z,23.00
2022-10-26T12:27:05.324Z,22.90
2022-10-26T12:30:15.831Z,23.00
2022-10-26T12:32:56.209Z,23.00
2022-10-26T12:35:45.082Z,23.00
2022-10-26T12:38:58.613Z,23.00
2022-10-26T12:41:28.472Z,22.90
2022-10-26T12:44:02.012Z,23.00
2022-10-26T12:46:43.594Z,23.00
2022-10-26T12:50:00.636Z,23.00
2022-10-26T12:52:48.607Z,23.00
2022-10-26T12:55:53.644Z,23.00
2022-10-26T12:58:54.193Z,23.00
2022-10-26T13:01:57.283Z,23.00
2022-10-26T13:05:05.997Z,23.00
2022-10-26T13:07:38.629Z,23.00
2022-10-26T13:10:20.377Z,23.00
2022-10-26T13:12:53.387Z,23.00
2022-10-26T13:15:28.990Z,23.00
2022-10-26T13:18:03.320Z,23.00
2022-10-26T13:20:33.177Z,23.00
2022-10-26T13:25:36.391Z,23.00
2022-10-26T13:28:08.732Z,23.00
2022-10-26T13:30:46.676Z,23.00
2022-10-26T13:33:34.006Z,23.00
2022-10-26T13:36:11.835Z,23.00
2022-10-26T13:38:40.537Z,23.00
2022-10-26T13:41:20.419Z,23.00
2022-10-26T13:43:50.247Z,23.00
2022-10-26T13:46:28.698Z,23.00
2022-10-26T13:49:08.673Z,23.00
2022-10-26T13:51:44.347Z,23.00
2022-10-26T13:54:25.078Z,23.00
2022-10-26T13:57:11.821Z,23.00
2022-10-26T13:59:45.025Z,23.00
2022-10-26T14:02:24.790Z,23.00
2022-10-26T14:05:03.463Z,23.00
2022-10-26T14:07:38.828Z,23.00
2022-10-26T14:10:08.343Z,23.00
2022-10-26T14:12:36.995Z,23.00
2022-10-26T14:15:09.914Z,23.00
2022-10-26T14:17:38.706Z,23.00
2022-10-26T14:20:20.395Z,22.90
2022-10-26T14:22:49.211Z,23.00
2022-10-26T14:25:31.039Z,22.90
2022-10-26T14:28:24.223Z,22.90
2022-10-26T14:30:53.419Z,23.00
2022-10-26T14:33:29.596Z,22.90
2022-10-26T14:35:59.843Z,22.90
2022-10-26T14:38:31.919Z,23.00
2022-10-26T14:41:00.524Z,23.00
2022-10-26T14:43:29.215Z,22.90
2022-10-26T14:45:57.945Z,22.90
2022-10-26T14:48:31.533Z,22.90
2022-10-26T14:51:04.555Z,23.00
2022-10-26T14:53:42.144Z,22.90
2022-10-26T14:56:25.986Z,22.90
2022-10-26T14:58:55.564Z,22.90
2022-10-26T15:01:36.182Z,23.00
2022-10-26T15:04:07.793Z,23.00
2022-10-26T15:06:44.261Z,23.00
2022-10-26T15:09:38.435Z,22.90
2022-10-26T15:12:09.531Z,22.90
2022-10-26T15:14:38.232Z,23.00
2022-10-26T15:17:07.055Z,22.90
2022-10-26T15:19:36.635Z,22.90
2022-10-26T15:22:06.882Z,22.90
2022-10-26T15:24:39.059Z,22.90
2022-10-26T15:27:16.366Z,22.90
2022-10-26T15:29:47.478Z,22.90
2022-10-26T15:32:29.584Z,22.90
2022-10-26T15:35:28.627Z,22.90
2022-10-26T15:38:01.099Z,22.90
2022-10-26T15:40:32.460Z,22.90
2022-10-26T15:43:02.281Z,22.90
2022-10-26T15:45:35.075Z,22.90
2022-10-26T15:48:20.638Z,22.90
2022-10-26T15:50:49.308Z,22.90
2022-10-26T15:53:22.975Z,22.90
2022-10-26T15:55:54.143Z,22.90
2022-10-26T15:58:23.577Z,22.90
2022-10-26T16:00:52.453Z,22.90
2022-10-26T16:03:24.407Z,22.90
2022-10-26T16:05:57.686Z,22.80
2022-10-26T16:08:29.191Z,22.80
2022-10-26T16:10:58.434Z,22.80
2022-10-26T16:13:27.723Z,22.80
2022-10-26T16:15:56.318Z,22.80
2022-10-26T16:18:24.990Z,22.80
2022-10-26T16:20:53.600Z,22.80
2022-10-26T16:23:22.193Z,22.80
2022-10-26T16:25:52.196Z,22.80
2022-10-26T16:28:20.862Z,22.80
2022-10-26T16:30:49.553Z,22.80
2022-10-26T16:33:18.150Z,22.70
2022-10-26T16:35:46.755Z,22.70
2022-10-26T16:38:15.352Z,22.70
2022-10-26T16:40:45.175Z,22.70
2022-10-26T16:43:15.117Z,22.70
2022-10-26T16:45:43.808Z,22.60
2022-10-26T16:48:15.484Z,22.60
2022-10-26T16:50:44.171Z,22.60
2022-10-26T16:53:12.802Z,22.60
2022-10-26T16:58:16.456Z,22.60
2022-10-26T17:00:45.055Z,22.60
2022-10-26T17:03:13.629Z,22.60
2022-10-26T17:05:42.205Z,22.60
2022-10-26T17:08:10.803Z,22.60
2022-10-26T17:10:39.382Z,22.60
2022-10-26T17:13:07.950Z,22.60
2022-10-26T17:15:37.911Z,22.50
2022-10-26T17:18:08.415Z,22.50
2022-10-26T17:20:37.080Z,22.50
2022-10-26T17:23:06.058Z,22.50
2022-10-26T17:25:38.369Z,22.50
2022-10-26T17:28:06.977Z,22.50
2022-10-26T17:30:37.043Z,22.50
2022-10-26T17:33:05.861Z,22.40
2022-10-26T17:35:34.951Z,22.50
2022-10-26T17:38:03.633Z,22.40
2022-10-26T17:40:33.196Z,22.40
2022-10-26T17:43:01.812Z,22.40
2022-10-26T17:45:30.474Z,22.40
2022-10-26T17:48:00.543Z,22.40
2022-10-26T17:50:29.133Z,22.40
2022-10-26T17:52:57.723Z,22.40
2022-10-26T17:55:26.410Z,22.40
2022-10-26T17:57:55.030Z,22.40
2022-10-26T18:00:23.678Z,22.40
2022-10-26T18:02:52.345Z,22.40
2022-10-26T18:05:22.504Z,22.40
2022-10-26T18:07:51.331Z,22.30
2022-10-26T18:10:36.876Z,22.30
2022-10-26T18:13:06.717Z,22.30
2022-10-26T18:15:37.408Z,22.30
2022-10-26T18:18:06.284Z,22.30
2022-10-26T18:20:37.413Z,22.30
2022-10-26T18:23:06.462Z,22.30
2022-10-26T18:25:36.219Z,22.20
2022-10-26T18:28:05.243Z,22.20
2022-10-26T18:30:35.687Z,22.20
2022-10-26T18:33:04.377Z,22.20
2022-10-26T18:35:35.044Z,22.20
2022-10-26T18:38:03.605Z,22.20
2022-10-26T18:40:32.239Z,22.20
2022-10-26T18:43:00.855Z,22.20
2022-10-26T18:45:29.459Z,22.10
2022-10-26T18:47:58.295Z,22.10
2022-10-26T18:50:26.931Z,22.10
2022-10-26T18:52:56.930Z,22.10
2022-10-26T18:55:25.593Z,22.10
2022-10-26T18:57:54.234Z,22.10
2022-10-26T19:00:23.558Z,22.10
2022-10-26T19:02:52.614Z,22.10
2022-10-26T19:05:21.473Z,22.10
2022-10-26T19:07:50.079Z,22.00
2022-10-26T19:10:20.039Z,22.00
2022-10-26T19:12:48.875Z,22.00
2022-10-26T19:15:18.302Z,22.00
2022-10-26T19:17:46.917Z,22.00
2022-10-26T19:20:15.827Z,22.00
2022-10-26T19:22:44.539Z,22.00
2022-10-26T19:25:13.127Z,22.00
2022-10-26T19:27:43.289Z,22.00
2022-10-26T19:30:13.528Z,22.00
2022-10-26T19:32:42.261Z,22.00
2022-10-26T19:35:11.323Z,22.00
2022-10-26T19:37:39.985Z,21.90
2022-10-26T19:40:10.669Z,22.00
2022-10-26T19:42:39.261Z,21.90
2022-10-26T19:45:10.920Z,22.00
2022-10-26T19:47:40.079Z,21.90
2022-10-26T19:50:09.614Z,21.90
2022-10-26T19:52:38.215Z,21.90
2022-10-26T19:55:07.808Z,21.90
2022-10-26T19:57:36.508Z,21.90
2022-10-26T20:00:06.504Z,21.90
2022-10-26T20:02:42.289Z,21.90
2022-10-26T20:05:29.655Z,21.90
2022-10-26T20:08:17.004Z,21.90
2022-10-26T20:11:08.953Z,21.90
2022-10-26T20:13:59.167Z,21.80
2022-10-26T20:16:46.318Z,21.80
2022-10-26T20:19:34.934Z,21.80
2022-10-26T20:22:22.322Z,21.80
2022-10-26T20:25:10.194Z,21.80
2022-10-26T20:27:57.150Z,21.80
2022-10-26T20:30:45.786Z,21.70
2022-10-26T20:33:33.251Z,21.70
2022-10-26T20:36:22.128Z,21.70
2022-10-26T20:39:09.815Z,21.70
2022-10-26T20:41:57.871Z,21.70
2022-10-26T20:44:46.122Z,21.70
2022-10-26T20:47:34.230Z,21.70
2022-10-26T20:50:22.656Z,21.70
2022-10-26T20:53:19.787Z,21.70
2022-10-26T20:56:15.504Z,21.60
2022-10-26T20:59:04.347Z,21.60
2022-10-26T21:01:51.408Z,21.60
2022-10-26T21:04:38.467Z,21.60
2022-10-26T21:07:25.777Z,21.60
2022-10-26T21:10:14.430Z,21.60
2022-10-26T21:13:01.560Z,21.50
2022-10-26T21:15:48.933Z,21.50
2022-10-26T21:18:35.969Z,21.50
2022-10-26T21:21:23.093Z,21.50
2022-10-26T21:24:10.882Z,21.50
2022-10-26T21:26:59.647Z,21.50
2022-10-26T21:29:47.085Z,21.50
2022-10-26T21:32:34.051Z,21.40
2022-10-26T21:35:21.680Z,21.40
2022-10-26T21:38:09.009Z,21.40
2022-10-26T21:41:04.775Z,21.40
2022-10-26T21:44:03.399Z,21.40
2022-10-26T21:46:56.947Z,21.40
2022-10-26T21:49:43.964Z,21.40
2022-10-26T21:52:31.043Z,21.40
2022-10-26T21:55:18.751Z,21.40
2022-10-26T21:58:05.836Z,21.40
2022-10-26T22:00:54.334Z,21.30
2022-10-26T22:03:42.678Z,21.40
2022-10-26T22:06:30.899Z,21.30
2022-10-26T22:09:18.028Z,21.40
2022-10-26T22:12:05.889Z,21.40
2022-10-26T22:14:53.441Z,21.30
2022-10-26T22:17:42.421Z,21.30
2022-10-26T22:20:29.586Z,21.30
2022-10-26T22:23:16.651Z,21.30
2022-10-26T22:26:04.983Z,21.30
2022-10-26T22:28:54.578Z,21.30
2022-10-26T22:31:41.991Z,21.30
2022-10-26T22:34:30.318Z,21.30
2022-10-26T22:37:17.632Z,21.20
2022-10-26T22:40:05.654Z,21.30
2022-10-26T22:42:53.383Z,21.30
2022-10-26T22:45:40.661Z,21.20
2022-10-26T22:48:28.105Z,21.20
2022-10-26T22:51:19.773Z,21.20
2022-10-26T22:54:07.479Z,21.20
2022-10-26T22:56:54.709Z,21.20
2022-10-26T22:59:41.885Z,21.20
2022-10-26T23:02:29.058Z,21.10
2022-10-26T23:05:16.047Z,21.10
2022-10-26T23:08:04.756Z,21.10
2022-10-26T23:10:51.738Z,21.10
2022-10-26T23:13:38.953Z,21.10
2022-10-26T23:16:26.910Z,21.10
2022-10-26T23:19:14.205Z,21.00
2022-10-26T23:22:01.597Z,21.00
2022-10-26T23:24:50.013Z,21.10
2022-10-26T23:27:37.301Z,21.10
2022-10-26T23:30:24.532Z,21.00
2022-10-26T23:33:11.734Z,21.00
2022-10-26T23:35:58.770Z,21.00
2022-10-26T23:38:46.560Z,21.00
2022-10-26T23:41:35.096Z,21.00
2022-10-26T23:44:22.428Z,21.00
2022-10-26T23:47:09.453Z,20.90
2022-10-26T23:49:56.602Z,21.00
2022-10-26T23:52:48.009Z,21.00
2022-10-26T23:55:35.004Z,20.90
2022-10-26T23:58:23.426Z,20.90
